Terminal Aerodrome Forecast
Issued by NWS

Home | Current Version | Previous Version | Text Only | Print | Product List | Glossary On
Versions: 1 2 3 4 5 6 7 8 9 10 11 12 13 14 15
000
FTUS45 KRIW 242000 AAA
TAFBPI
TAF AMD
KBPI 242005Z 2420/2518 25015G24KT P6SM FEW050 BKN150
     FM250100 VRB06KT P6SM SCT150 BKN200
     FM251100 VRB06KT P6SM BKN060=

USA.gov is the U.S. government's official web portal to all federal, state and local government web resources and services.